createdAt,value
2018-02-09T00:03:09.000Z,27.791
2018-02-09T00:13:09.000Z,27.997
2018-02-09T00:23:09.000Z,28.049
2018-02-09T00:33:09.000Z,28.059
2018-02-09T00:43:09.000Z,28.23
2018-02-09T00:53:09.000Z,28.164
2018-02-09T01:03:10.000Z,28.64
2018-02-09T01:13:09.000Z,28.506
2018-02-09T01:23:09.000Z,29.095
2018-02-09T01:33:09.000Z,29.444
2018-02-09T01:43:09.000Z,29.302
2018-02-09T01:53:09.000Z,29.432
2018-02-09T02:03:09.000Z,30.088
2018-02-09T02:13:09.000Z,30.416
2018-02-09T02:23:09.000Z,30.324
2018-02-09T02:33:09.000Z,29.111
2018-02-09T02:43:09.000Z,29.15
2018-02-09T02:53:09.000Z,29.431
2018-02-09T03:03:09.000Z,29.161
2018-02-09T03:13:09.000Z,29.355
2018-02-09T03:23:10.000Z,29.398
2018-02-09T03:33:10.000Z,29.386
2018-02-09T03:43:10.000Z,29.308
2018-02-09T03:53:10.000Z,29.22
2018-02-09T04:03:10.000Z,29.188
2018-02-09T04:13:10.000Z,29.175
2018-02-09T04:23:10.000Z,29.25
2018-02-09T04:33:10.000Z,29.076
2018-02-09T04:43:10.000Z,29.205
2018-02-09T04:53:10.000Z,29.342
2018-02-09T05:03:10.000Z,29.342
2018-02-09T05:13:10.000Z,29.297
2018-02-09T05:23:10.000Z,29.124
2018-02-09T05:33:10.000Z,29.156
2018-02-09T05:43:10.000Z,28.701
2018-02-09T05:53:10.000Z,28.894
2018-02-09T06:03:10.000Z,28.873
2018-02-09T06:13:10.000Z,28.266
2018-02-09T06:23:10.000Z,27.416
2018-02-09T06:33:10.000Z,27.722
2018-02-09T06:43:10.000Z,27.79
2018-02-09T06:53:10.000Z,27.422
2018-02-09T07:03:10.000Z,27.682
2018-02-09T07:13:10.000Z,27.087
2018-02-09T07:23:10.000Z,27.208
2018-02-09T07:33:10.000Z,27.065
2018-02-09T07:43:10.000Z,26.937
2018-02-09T07:53:10.000Z,27.24
2018-02-09T08:03:10.000Z,27.035
2018-02-09T08:13:10.000Z,27.012
2018-02-09T08:23:10.000Z,26.588
2018-02-09T08:33:10.000Z,26.956
2018-02-09T08:43:10.000Z,27.362
2018-02-09T08:53:10.000Z,25.866
2018-02-09T09:03:10.000Z,26.356
2018-02-09T09:13:10.000Z,25.894
2018-02-09T09:23:10.000Z,25.208
2018-02-09T09:33:10.000Z,24.842
2018-02-09T09:43:10.000Z,24.629
2018-02-09T09:53:10.000Z,24.483
2018-02-09T10:03:10.000Z,24.291
2018-02-09T10:13:10.000Z,24.151
2018-02-09T10:23:10.000Z,23.771
2018-02-09T10:33:10.000Z,23.418
2018-02-09T10:43:10.000Z,22.822
2018-02-09T10:53:10.000Z,22.224
2018-02-09T11:03:10.000Z,21.869
2018-02-09T11:13:10.000Z,21.718
2018-02-09T11:23:10.000Z,21.734
2018-02-09T11:33:11.000Z,21.273
2018-02-09T11:43:11.000Z,21.277
2018-02-09T11:53:11.000Z,21.443
2018-02-09T12:03:11.000Z,21.764
2018-02-09T12:13:11.000Z,21.94
2018-02-09T12:23:11.000Z,21.875
2018-02-09T12:33:11.000Z,22.03
2018-02-09T12:43:12.000Z,21.998
2018-02-09T12:53:11.000Z,22.262
2018-02-09T13:03:11.000Z,22.305
2018-02-09T13:13:11.000Z,22.492
2018-02-09T13:23:11.000Z,22.537
2018-02-09T13:33:11.000Z,22.58
2018-02-09T13:43:11.000Z,22.559
2018-02-09T13:53:11.000Z,22.526
2018-02-09T14:03:11.000Z,22.513
2018-02-09T14:13:11.000Z,22.722
2018-02-09T14:23:11.000Z,23.281
2018-02-09T14:33:12.000Z,23.781
2018-02-09T14:43:11.000Z,24.93
2018-02-09T14:53:11.000Z,25.264
2018-02-09T15:03:11.000Z,27.482
2018-02-09T15:13:11.000Z,26.643
2018-02-09T15:23:11.000Z,26.522
2018-02-09T15:33:11.000Z,26.399
2018-02-09T15:43:11.000Z,27.034
2018-02-09T15:53:11.000Z,27.818
2018-02-09T16:03:11.000Z,27.417
2018-02-09T16:13:11.000Z,27.425
2018-02-09T16:23:11.000Z,27.281
2018-02-09T16:33:11.000Z,27.267
2018-02-09T16:43:11.000Z,27.462
2018-02-09T16:53:11.000Z,27.33
2018-02-09T17:03:11.000Z,27.274
2018-02-09T17:13:11.000Z,27.229
2018-02-09T17:23:11.000Z,27.25
2018-02-09T17:33:11.000Z,27.149
2018-02-09T17:43:11.000Z,27.153
2018-02-09T17:53:11.000Z,27.367
2018-02-09T18:03:11.000Z,27.333
2018-02-09T18:13:11.000Z,27.192
2018-02-09T18:23:12.000Z,27.063
2018-02-09T18:33:11.000Z,27.269
2018-02-09T18:43:11.000Z,27.799
2018-02-09T18:53:11.000Z,27.454
2018-02-09T19:03:11.000Z,27.835
2018-02-09T19:13:11.000Z,27.356
2018-02-09T19:23:14.000Z,27.421
2018-02-09T19:33:12.000Z,27.422
2018-02-09T19:43:12.000Z,27.644
2018-02-09T19:53:12.000Z,27.628
2018-02-09T20:03:12.000Z,27.377
2018-02-09T20:13:12.000Z,27.348
2018-02-09T20:23:12.000Z,27.627
2018-02-09T20:33:12.000Z,26.807
2018-02-09T20:43:12.000Z,26.619
2018-02-09T20:53:12.000Z,26.917
2018-02-09T21:03:12.000Z,27.662
2018-02-09T21:13:12.000Z,27.55
2018-02-09T21:23:12.000Z,27.801
2018-02-09T21:33:12.000Z,27.908
2018-02-09T21:43:12.000Z,27.919
2018-02-09T21:53:13.000Z,27.504
2018-02-09T22:03:13.000Z,27.721
2018-02-09T22:13:12.000Z,28.179
2018-02-09T22:23:12.000Z,28.07
2018-02-09T22:33:12.000Z,28.219
2018-02-09T22:43:12.000Z,28.254
2018-02-09T22:53:12.000Z,28.242
2018-02-09T23:03:12.000Z,28.12
2018-02-09T23:13:12.000Z,28.564
2018-02-09T23:23:12.000Z,28.381
2018-02-09T23:33:12.000Z,28.305
2018-02-09T23:43:12.000Z,28.095
2018-02-09T23:53:12.000Z,27.972
